F/V Fleur Des Vagues — FPEJ — position and weather

sailwx.info

Track history (hours):
 
Tides and Currents Weather Stations Pressure Air Temp Water Temp Dewpoint Dewpoint Depression Visibility Wind Speed Wind Dir Waves Ship Positions

F/V Fleur Des Vagues

Last reported at 2015-Apr-30 10:33 UTC. Time now 2015-May-03 20:54 UTC.
Position N 46°30' W 001°47'.

Length 16 m.

Type: Fishing. MMSI: 227893000.

Date/timePositionNaut miles runAvg speedWind from/ knotsBaromVisibWave heightAir tempDewpointWater temp
2015-Apr-30 10:33N 46°30' W 001°47'0 0.0
2015-Apr-30 09:33N 46°30' W 001°47'4 4.0
2015-Apr-30 08:33N 46°26' W 001°46'7 6.7
2015-Apr-30 07:33N 46°19' W 001°45'2 2.0
2015-Apr-30 06:33N 46°18' W 001°47'2 2.1
2015-Apr-30 05:33N 46°19' W 001°44'2 1.9
2015-Apr-30 04:33N 46°18' W 001°46'1 1.2
2015-Apr-30 03:33N 46°19' W 001°45'0 0.5
2015-Apr-30 02:31N 46°19' W 001°46'1 1.5
2015-Apr-30 01:33N 46°18' W 001°47'2 2.1
2015-Apr-30 00:33N 46°19' W 001°44'8 8.4
2015-Apr-29 23:33N 46°27' W 001°47'3 2.7
2015-Apr-29 22:33N 46°30' W 001°47'0 0.0
2015-Apr-29 21:33N 46°30' W 001°47'0 0.0
2015-Apr-29 20:33N 46°30' W 001°47'0 0.0
2015-Apr-29 19:33N 46°30' W 001°47'0 0.0
2015-Apr-29 18:33N 46°30' W 001°47'0 0.0
2015-Apr-29 17:33N 46°30' W 001°47'0 0.0
2015-Apr-29 16:33N 46°30' W 001°47'0 0.0
2015-Apr-29 15:33N 46°30' W 001°47'0 0.0
2015-Apr-29 14:33N 46°30' W 001°47'0 0.0
2015-Apr-29 13:33N 46°30' W 001°47'0 0.0
2015-Apr-29 12:33N 46°30' W 001°47'0 0.0
2015-Apr-29 11:33N 46°30' W 001°47'2 2.5
2015-Apr-29 10:33N 46°27' W 001°47'9 8.1
2015-Apr-29 09:30N 46°19' W 001°46'0 0.2
2015-Apr-29 08:23N 46°19' W 001°46'1 1.0
2015-Apr-29 07:33N 46°19' W 001°45'2 1.5
2015-Apr-29 06:33N 46°18' W 001°47'1 1.2
2015-Apr-29 05:32N 46°19' W 001°46'1 0.9
2015-Apr-29 04:33N 46°19' W 001°44'2 1.8
2015-Apr-29 03:33N 46°18' W 001°47'2 1.5
2015-Apr-29 02:33N 46°19' W 001°45'2 1.9
2015-Apr-29 01:33N 46°18' W 001°47'2 2.3
2015-Apr-29 00:33N 46°19' W 001°44'8 7.9
2015-Apr-28 23:33N 46°27' W 001°47'3 3.0
2015-Apr-28 22:33N 46°30' W 001°47'0 0.0
2015-Apr-28 21:33N 46°30' W 001°47'0 0.0
2015-Apr-28 20:33N 46°30' W 001°47'0 0.0
2015-Apr-28 19:33N 46°30' W 001°47'0 0.0
2015-Apr-28 18:33N 46°30' W 001°47'0 0.0
2015-Apr-28 17:33N 46°30' W 001°47'0 0.0
2015-Apr-28 16:33N 46°30' W 001°47'0 0.0
2015-Apr-28 15:33N 46°30' W 001°47'0 0.0
2015-Apr-28 14:33N 46°30' W 001°47'0 0.0
2015-Apr-28 13:33N 46°30' W 001°47'0 0.0
2015-Apr-28 12:33N 46°30' W 001°47'3 3.3
2015-Apr-28 11:33N 46°27' W 001°47'8 8.0
2015-Apr-28 10:33N 46°19' W 001°44'2 2.4
2015-Apr-28 09:33N 46°18' W 001°48'0 0.3
2015-Apr-28 08:33N 46°17' W 001°48'1 1.4
2015-Apr-28 07:31N 46°18' W 001°46'1 1.6
2015-Apr-28 06:33N 46°19' W 001°44'11 0.7
2015-Apr-27 15:33N 46°30' W 001°47'0 0.0
2015-Apr-27 14:33N 46°30' W 001°47'0 0.0
2015-Apr-27 13:33N 46°30' W 001°47'0 0.0
2015-Apr-27 12:33N 46°30' W 001°47'6 6.1
2015-Apr-27 11:33N 46°24' W 001°46'7 6.8
2015-Apr-27 10:33N 46°17' W 001°48'1 0.8
2015-Apr-27 09:33N 46°17' W 001°47'1 0.8
2015-Apr-27 08:33N 46°18' W 001°48'1 1.3
2015-Apr-27 07:33N 46°18' W 001°46'1 1.1
2015-Apr-27 06:33N 46°19' W 001°46'1 1.4
2015-Apr-27 05:30N 46°18' W 001°45'1 0.8
2015-Apr-27 04:32N 46°18' W 001°46'0 0.5
2015-Apr-27 03:33N 46°19' W 001°46'1 0.8
2015-Apr-27 02:33N 46°18' W 001°47'1 1.4
2015-Apr-27 01:33N 46°18' W 001°49'2 2.3
2015-Apr-27 00:33N 46°19' W 001°46'8 8.1
2015-Apr-26 23:33N 46°27' W 001°47'3 3.1
2015-Apr-26 22:33N 46°30' W 001°47'0 0.0
2015-Apr-26 21:33N 46°30' W 001°47'0 0.0
2015-Apr-26 20:33N 46°30' W 001°47'0 0.0
2015-Apr-26 19:33N 46°30' W 001°47'0 0.0
2015-Apr-26 18:33N 46°30' W 001°47'0 0.0
2015-Apr-26 17:33N 46°30' W 001°47'0 0.0
2015-Apr-26 16:33N 46°30' W 001°47'0 0.0
2015-Apr-26 15:33N 46°30' W 001°47'0 0.0
2015-Apr-26 14:33N 46°30' W 001°47'0 0.0
2015-Apr-26 13:33N 46°30' W 001°47'1 0.9
2015-Apr-26 12:33N 46°29' W 001°47'9 9.3
2015-Apr-26 11:33N 46°20' W 001°46'2 2.0
2015-Apr-26 10:33N 46°18' W 001°45'2 1.8
2015-Apr-26 09:33N 46°17' W 001°47'2 1.7
2015-Apr-26 08:33N 46°18' W 001°45'2 2.1
2015-Apr-26 07:33N 46°17' W 001°47'1 0.7
2015-Apr-26 06:33N 46°18' W 001°48'2 1.8
2015-Apr-26 05:33N 46°18' W 001°46'1 1.0
2015-Apr-26 04:20N 46°17' W 001°46'1 1.3
2015-Apr-26 03:33N 46°18' W 001°46'1 1.5
2015-Apr-26 02:33N 46°18' W 001°48'1 0.5
2015-Apr-26 01:33N 46°18' W 001°48'2 1.7
2015-Apr-26 00:34N 46°19' W 001°46'8 8.3
2015-Apr-25 23:33N 46°27' W 001°47'3 2.9
2015-Apr-25 22:33N 46°30' W 001°47'0 0.0
2015-Apr-25 21:33N 46°30' W 001°47'0 0.0
2015-Apr-25 20:33N 46°30' W 001°47'0 0.0
2015-Apr-25 19:33N 46°30' W 001°47'0 0.0
2015-Apr-25 18:33N 46°30' W 001°47'0 0.0
2015-Apr-25 17:33N 46°30' W 001°47'0 0.0
2015-Apr-25 16:33N 46°30' W 001°47'0 0.0
2015-Apr-25 15:33N 46°30' W 001°47'0 0.0
2015-Apr-25 14:33N 46°30' W 001°47'1 1.4
2015-Apr-25 13:33N 46°29' W 001°47'9 9.0
2015-Apr-25 12:33N 46°20' W 001°46'2 2.3
2015-Apr-25 11:33N 46°17' W 001°47'1 0.4
2015-Apr-25 10:06N 46°17' W 001°46'1 2.0
2015-Apr-25 09:33N 46°17' W 001°47'2 1.8
2015-Apr-25 08:33N 46°18' W 001°45'2 2.1
2015-Apr-25 07:33N 46°17' W 001°48'2 1.7
2015-Apr-25 06:33N 46°18' W 001°46'1 1.5
2015-Apr-25 05:33N 46°17' W 001°48'2 1.7
2015-Apr-25 04:33N 46°17' W 001°45'1 1.5
2015-Apr-25 03:33N 46°18' W 001°45'2 1.5
2015-Apr-25 02:33N 46°18' W 001°47'0 0.3
2015-Apr-25 01:33N 46°18' W 001°47'2 1.9
2015-Apr-25 00:33N 46°19' W 001°45'9 8.7
2015-Apr-24 23:33N 46°28' W 001°47'2 2.0
2015-Apr-24 22:33N 46°30' W 001°47'0 0.0
2015-Apr-24 21:33N 46°30' W 001°47'0 0.0
2015-Apr-24 20:33N 46°30' W 001°47'0 0.0
2015-Apr-24 19:33N 46°30' W 001°47'0 0.0
2015-Apr-24 18:33N 46°30' W 001°47'0 0.0
2015-Apr-24 17:33N 46°30' W 001°47'0 0.0
2015-Apr-24 16:33N 46°30' W 001°47'0 0.0
2015-Apr-24 15:33N 46°30' W 001°47'0 0.0
2015-Apr-24 14:33N 46°30' W 001°47'0 0.0
2015-Apr-24 13:33N 46°30' W 001°47'6 6.3
2015-Apr-24 12:33N 46°24' W 001°47'6 6.3
2015-Apr-24 11:33N 46°17' W 001°45'1 1.3
2015-Apr-24 10:33N 46°19' W 001°45'0 0.2
2015-Apr-24 09:33N 46°18' W 001°44'2 1.9
2015-Apr-24 08:29N 46°17' W 001°47'1 1.0
2015-Apr-24 07:34N 46°17' W 001°46'0 0.4
2015-Apr-24 06:32N 46°17' W 001°46'1 0.5
2015-Apr-24 05:33N 46°17' W 001°45'2 1.5
2015-Apr-24 04:27N 46°16' W 001°47'1 1.6
2015-Apr-24 03:33N 46°17' W 001°45'2 1.6
2015-Apr-24 02:33N 46°17' W 001°48'1 1.3
2015-Apr-24 01:30N 46°18' W 001°46'2 1.8
2015-Apr-24 00:33N 46°19' W 001°45'8 8.4
2015-Apr-23 23:33N 46°28' W 001°47'2 2.4
2015-Apr-23 22:33N 46°30' W 001°47'0 0.0
2015-Apr-23 21:33N 46°30' W 001°47'0 0.0
2015-Apr-23 20:33N 46°30' W 001°47'0 0.0
2015-Apr-23 19:33N 46°30' W 001°47'0 0.0
2015-Apr-23 18:33N 46°30' W 001°47'0 0.0
2015-Apr-23 17:33N 46°30' W 001°47'0 0.0
2015-Apr-23 16:33N 46°30' W 001°47'0 0.0
2015-Apr-23 15:33N 46°30' W 001°47'0 0.0
2015-Apr-23 14:33N 46°30' W 001°47'0 0.0
2015-Apr-23 13:33N 46°30' W 001°47'5 4.7
2015-Apr-23 12:33N 46°25' W 001°47'9 8.6
2015-Apr-23 11:33N 46°17' W 001°47'1 1.4
2015-Apr-23 10:33N 46°17' W 001°45'1 1.3
2015-Apr-23 09:33N 46°18' W 001°44'8 8.4
2015-Apr-23 08:33N 46°27' W 001°47'3 3.2
2015-Apr-23 07:33N 46°30' W 001°47'0 0.2
2015-Apr-23 06:33N 46°30' W 001°47'  
2015-Apr-20 11:33N 46°30' W 001°47'  
Track history (hours):
 
Tides and Currents Weather Stations Pressure Air Temp Water Temp Dewpoint Dewpoint Depression Visibility Wind Speed Wind Dir Waves Ship Positions

F/V Fleur Des Vagues

Last reported at 2015-Apr-30 10:33 UTC. Time now 2015-May-03 20:54 UTC.
Position N 46°30' W 001°47'.

Length 16 m.

Type: Fishing. MMSI: 227893000.

Date/timePositionNaut miles runAvg speedWind from/ knotsBaromVisibWave heightAir tempDewpointWater temp
2015-Apr-30 10:33N 46°30' W 001°47'0 0.0
2015-Apr-30 09:33N 46°30' W 001°47'4 4.0
2015-Apr-30 08:33N 46°26' W 001°46'7 6.7
2015-Apr-30 07:33N 46°19' W 001°45'2 2.0
2015-Apr-30 06:33N 46°18' W 001°47'2 2.1
2015-Apr-30 05:33N 46°19' W 001°44'2 1.9
2015-Apr-30 04:33N 46°18' W 001°46'1 1.2
2015-Apr-30 03:33N 46°19' W 001°45'0 0.5
2015-Apr-30 02:31N 46°19' W 001°46'1 1.5
2015-Apr-30 01:33N 46°18' W 001°47'2 2.1
2015-Apr-30 00:33N 46°19' W 001°44'8 8.4
2015-Apr-29 23:33N 46°27' W 001°47'3 2.7
2015-Apr-29 22:33N 46°30' W 001°47'0 0.0
2015-Apr-29 21:33N 46°30' W 001°47'0 0.0
2015-Apr-29 20:33N 46°30' W 001°47'0 0.0
2015-Apr-29 19:33N 46°30' W 001°47'0 0.0
2015-Apr-29 18:33N 46°30' W 001°47'0 0.0
2015-Apr-29 17:33N 46°30' W 001°47'0 0.0
2015-Apr-29 16:33N 46°30' W 001°47'0 0.0
2015-Apr-29 15:33N 46°30' W 001°47'0 0.0
2015-Apr-29 14:33N 46°30' W 001°47'0 0.0
2015-Apr-29 13:33N 46°30' W 001°47'0 0.0
2015-Apr-29 12:33N 46°30' W 001°47'0 0.0
2015-Apr-29 11:33N 46°30' W 001°47'2 2.5
2015-Apr-29 10:33N 46°27' W 001°47'9 8.1
2015-Apr-29 09:30N 46°19' W 001°46'0 0.2
2015-Apr-29 08:23N 46°19' W 001°46'1 1.0
2015-Apr-29 07:33N 46°19' W 001°45'2 1.5
2015-Apr-29 06:33N 46°18' W 001°47'1 1.2
2015-Apr-29 05:32N 46°19' W 001°46'1 0.9
2015-Apr-29 04:33N 46°19' W 001°44'2 1.8
2015-Apr-29 03:33N 46°18' W 001°47'2 1.5
2015-Apr-29 02:33N 46°19' W 001°45'2 1.9
2015-Apr-29 01:33N 46°18' W 001°47'2 2.3
2015-Apr-29 00:33N 46°19' W 001°44'8 7.9
2015-Apr-28 23:33N 46°27' W 001°47'3 3.0
2015-Apr-28 22:33N 46°30' W 001°47'0 0.0
2015-Apr-28 21:33N 46°30' W 001°47'0 0.0
2015-Apr-28 20:33N 46°30' W 001°47'0 0.0
2015-Apr-28 19:33N 46°30' W 001°47'0 0.0
2015-Apr-28 18:33N 46°30' W 001°47'0 0.0
2015-Apr-28 17:33N 46°30' W 001°47'0 0.0
2015-Apr-28 16:33N 46°30' W 001°47'0 0.0
2015-Apr-28 15:33N 46°30' W 001°47'0 0.0
2015-Apr-28 14:33N 46°30' W 001°47'0 0.0
2015-Apr-28 13:33N 46°30' W 001°47'0 0.0
2015-Apr-28 12:33N 46°30' W 001°47'3 3.3
2015-Apr-28 11:33N 46°27' W 001°47'8 8.0
2015-Apr-28 10:33N 46°19' W 001°44'2 2.4
2015-Apr-28 09:33N 46°18' W 001°48'0 0.3
2015-Apr-28 08:33N 46°17' W 001°48'1 1.4
2015-Apr-28 07:31N 46°18' W 001°46'1 1.6
2015-Apr-28 06:33N 46°19' W 001°44'11 0.7
2015-Apr-27 15:33N 46°30' W 001°47'0 0.0
2015-Apr-27 14:33N 46°30' W 001°47'0 0.0
2015-Apr-27 13:33N 46°30' W 001°47'0 0.0
2015-Apr-27 12:33N 46°30' W 001°47'6 6.1
2015-Apr-27 11:33N 46°24' W 001°46'7 6.8
2015-Apr-27 10:33N 46°17' W 001°48'1 0.8
2015-Apr-27 09:33N 46°17' W 001°47'1 0.8
2015-Apr-27 08:33N 46°18' W 001°48'1 1.3
2015-Apr-27 07:33N 46°18' W 001°46'1 1.1
2015-Apr-27 06:33N 46°19' W 001°46'1 1.4
2015-Apr-27 05:30N 46°18' W 001°45'1 0.8
2015-Apr-27 04:32N 46°18' W 001°46'0 0.5
2015-Apr-27 03:33N 46°19' W 001°46'1 0.8
2015-Apr-27 02:33N 46°18' W 001°47'1 1.4
2015-Apr-27 01:33N 46°18' W 001°49'2 2.3
2015-Apr-27 00:33N 46°19' W 001°46'8 8.1
2015-Apr-26 23:33N 46°27' W 001°47'3 3.1
2015-Apr-26 22:33N 46°30' W 001°47'0 0.0
2015-Apr-26 21:33N 46°30' W 001°47'0 0.0
2015-Apr-26 20:33N 46°30' W 001°47'0 0.0
2015-Apr-26 19:33N 46°30' W 001°47'0 0.0
2015-Apr-26 18:33N 46°30' W 001°47'0 0.0
2015-Apr-26 17:33N 46°30' W 001°47'0 0.0
2015-Apr-26 16:33N 46°30' W 001°47'0 0.0
2015-Apr-26 15:33N 46°30' W 001°47'0 0.0
2015-Apr-26 14:33N 46°30' W 001°47'0 0.0
2015-Apr-26 13:33N 46°30' W 001°47'1 0.9
2015-Apr-26 12:33N 46°29' W 001°47'9 9.3
2015-Apr-26 11:33N 46°20' W 001°46'2 2.0
2015-Apr-26 10:33N 46°18' W 001°45'2 1.8
2015-Apr-26 09:33N 46°17' W 001°47'2 1.7
2015-Apr-26 08:33N 46°18' W 001°45'2 2.1
2015-Apr-26 07:33N 46°17' W 001°47'1 0.7
2015-Apr-26 06:33N 46°18' W 001°48'2 1.8
2015-Apr-26 05:33N 46°18' W 001°46'1 1.0
2015-Apr-26 04:20N 46°17' W 001°46'1 1.3
2015-Apr-26 03:33N 46°18' W 001°46'1 1.5
2015-Apr-26 02:33N 46°18' W 001°48'1 0.5
2015-Apr-26 01:33N 46°18' W 001°48'2 1.7
2015-Apr-26 00:34N 46°19' W 001°46'8 8.3
2015-Apr-25 23:33N 46°27' W 001°47'3 2.9
2015-Apr-25 22:33N 46°30' W 001°47'0 0.0
2015-Apr-25 21:33N 46°30' W 001°47'0 0.0
2015-Apr-25 20:33N 46°30' W 001°47'0 0.0
2015-Apr-25 19:33N 46°30' W 001°47'0 0.0
2015-Apr-25 18:33N 46°30' W 001°47'0 0.0
2015-Apr-25 17:33N 46°30' W 001°47'0 0.0
2015-Apr-25 16:33N 46°30' W 001°47'0 0.0
2015-Apr-25 15:33N 46°30' W 001°47'0 0.0
2015-Apr-25 14:33N 46°30' W 001°47'1 1.4
2015-Apr-25 13:33N 46°29' W 001°47'9 9.0
2015-Apr-25 12:33N 46°20' W 001°46'2 2.3
2015-Apr-25 11:33N 46°17' W 001°47'1 0.4
2015-Apr-25 10:06N 46°17' W 001°46'1 2.0
2015-Apr-25 09:33N 46°17' W 001°47'2 1.8
2015-Apr-25 08:33N 46°18' W 001°45'2 2.1
2015-Apr-25 07:33N 46°17' W 001°48'2 1.7
2015-Apr-25 06:33N 46°18' W 001°46'1 1.5
2015-Apr-25 05:33N 46°17' W 001°48'2 1.7
2015-Apr-25 04:33N 46°17' W 001°45'1 1.5
2015-Apr-25 03:33N 46°18' W 001°45'2 1.5
2015-Apr-25 02:33N 46°18' W 001°47'0 0.3
2015-Apr-25 01:33N 46°18' W 001°47'2 1.9
2015-Apr-25 00:33N 46°19' W 001°45'9 8.7
2015-Apr-24 23:33N 46°28' W 001°47'2 2.0
2015-Apr-24 22:33N 46°30' W 001°47'0 0.0
2015-Apr-24 21:33N 46°30' W 001°47'0 0.0
2015-Apr-24 20:33N 46°30' W 001°47'0 0.0
2015-Apr-24 19:33N 46°30' W 001°47'0 0.0
2015-Apr-24 18:33N 46°30' W 001°47'0 0.0
2015-Apr-24 17:33N 46°30' W 001°47'0 0.0
2015-Apr-24 16:33N 46°30' W 001°47'0 0.0
2015-Apr-24 15:33N 46°30' W 001°47'0 0.0
2015-Apr-24 14:33N 46°30' W 001°47'0 0.0
2015-Apr-24 13:33N 46°30' W 001°47'6 6.3
2015-Apr-24 12:33N 46°24' W 001°47'6 6.3
2015-Apr-24 11:33N 46°17' W 001°45'1 1.3
2015-Apr-24 10:33N 46°19' W 001°45'0 0.2
2015-Apr-24 09:33N 46°18' W 001°44'2 1.9
2015-Apr-24 08:29N 46°17' W 001°47'1 1.0
2015-Apr-24 07:34N 46°17' W 001°46'0 0.4
2015-Apr-24 06:32N 46°17' W 001°46'1 0.5
2015-Apr-24 05:33N 46°17' W 001°45'2 1.5
2015-Apr-24 04:27N 46°16' W 001°47'1 1.6
2015-Apr-24 03:33N 46°17' W 001°45'2 1.6
2015-Apr-24 02:33N 46°17' W 001°48'1 1.3
2015-Apr-24 01:30N 46°18' W 001°46'2 1.8
2015-Apr-24 00:33N 46°19' W 001°45'8 8.4
2015-Apr-23 23:33N 46°28' W 001°47'2 2.4
2015-Apr-23 22:33N 46°30' W 001°47'0 0.0
2015-Apr-23 21:33N 46°30' W 001°47'0 0.0
2015-Apr-23 20:33N 46°30' W 001°47'0 0.0
2015-Apr-23 19:33N 46°30' W 001°47'0 0.0
2015-Apr-23 18:33N 46°30' W 001°47'0 0.0
2015-Apr-23 17:33N 46°30' W 001°47'0 0.0
2015-Apr-23 16:33N 46°30' W 001°47'0 0.0
2015-Apr-23 15:33N 46°30' W 001°47'0 0.0
2015-Apr-23 14:33N 46°30' W 001°47'0 0.0
2015-Apr-23 13:33N 46°30' W 001°47'5 4.7
2015-Apr-23 12:33N 46°25' W 001°47'9 8.6
2015-Apr-23 11:33N 46°17' W 001°47'1 1.4
2015-Apr-23 10:33N 46°17' W 001°45'1 1.3
2015-Apr-23 09:33N 46°18' W 001°44'8 8.4
2015-Apr-23 08:33N 46°27' W 001°47'3 3.2
2015-Apr-23 07:33N 46°30' W 001°47'0 0.2
2015-Apr-23 06:33N 46°30' W 001°47'  
2015-Apr-20 11:33N 46°30' W 001°47'  

Dump ship's entire track history